createdAt,value
2018-03-30T00:00:37.657Z,0.00
2018-03-30T00:01:38.089Z,0.00
2018-03-30T00:02:38.518Z,0.00
2018-03-30T00:03:38.927Z,0.00
2018-03-30T00:04:39.353Z,0.00
2018-03-30T00:05:39.762Z,0.00
2018-03-30T00:06:40.197Z,0.00
2018-03-30T00:07:40.618Z,0.00
2018-03-30T00:08:41.051Z,0.00
2018-03-30T00:09:41.460Z,0.00
2018-03-30T00:10:41.890Z,0.00
2018-03-30T00:11:42.301Z,0.00
2018-03-30T00:12:42.731Z,0.00
2018-03-30T00:13:43.158Z,0.00
2018-03-30T00:14:43.572Z,0.00
2018-03-30T00:15:44.017Z,0.00
2018-03-30T00:16:44.431Z,0.00
2018-03-30T00:17:44.851Z,0.00
2018-03-30T00:18:45.267Z,0.00
2018-03-30T00:19:45.687Z,0.00
2018-03-30T00:20:46.113Z,0.00
2018-03-30T00:21:46.555Z,0.00
2018-03-30T00:22:46.965Z,0.00
2018-03-30T00:23:47.394Z,0.00
2018-03-30T00:24:47.802Z,0.00
2018-03-30T00:25:48.894Z,0.00
2018-03-30T00:26:48.647Z,0.00
2018-03-30T00:27:49.070Z,0.00
2018-03-30T00:28:49.496Z,0.00
2018-03-30T00:29:49.915Z,0.00
2018-03-30T00:30:50.343Z,0.00
2018-03-30T00:31:51.400Z,0.00
2018-03-30T00:32:51.188Z,0.00
2018-03-30T00:33:51.612Z,0.00
2018-03-30T00:34:52.026Z,0.00
2018-03-30T00:35:52.452Z,0.00
2018-03-30T00:36:52.871Z,0.00
2018-03-30T00:37:53.315Z,0.00
2018-03-30T00:38:53.725Z,0.00
2018-03-30T00:39:54.136Z,0.00
2018-03-30T00:40:54.559Z,0.00
2018-03-30T00:41:54.994Z,0.00
2018-03-30T00:42:55.408Z,0.00
2018-03-30T00:43:55.828Z,0.00
2018-03-30T00:44:56.251Z,0.00
2018-03-30T00:45:56.681Z,0.00
2018-03-30T00:46:57.092Z,0.00
2018-03-30T00:47:57.521Z,0.00
2018-03-30T00:48:57.938Z,0.00
2018-03-30T00:49:58.364Z,0.00
2018-03-30T00:50:58.783Z,0.00
2018-03-30T00:51:59.206Z,0.00
2018-03-30T00:52:59.627Z,0.00
2018-03-30T00:54:00.046Z,0.00
2018-03-30T00:55:00.469Z,0.00
2018-03-30T00:56:00.893Z,0.00
2018-03-30T00:57:01.329Z,0.00
2018-03-30T00:58:01.743Z,0.00
2018-03-30T00:59:02.159Z,0.00
2018-03-30T01:00:02.583Z,0.00
2018-03-30T01:01:03.003Z,0.00
2018-03-30T01:02:03.421Z,0.00
2018-03-30T01:03:03.840Z,0.00
2018-03-30T01:04:04.278Z,0.00
2018-03-30T01:05:04.692Z,0.00
2018-03-30T01:06:05.120Z,0.00
2018-03-30T01:07:05.601Z,0.00
2018-03-30T01:08:05.965Z,0.00
2018-03-30T01:09:06.903Z,0.00
2018-03-30T01:10:06.794Z,0.00
2018-03-30T01:11:07.231Z,0.00
2018-03-30T01:12:07.644Z,0.00
2018-03-30T01:13:08.063Z,0.00
2018-03-30T01:14:08.488Z,0.00
2018-03-30T01:15:08.936Z,0.00
2018-03-30T01:16:09.334Z,0.00
2018-03-30T01:17:09.769Z,0.00
2018-03-30T01:18:10.176Z,0.00
2018-03-30T01:19:10.596Z,0.00
2018-03-30T01:20:11.010Z,0.00
2018-03-30T01:21:11.439Z,0.00
2018-03-30T01:22:11.864Z,0.00
2018-03-30T01:23:12.279Z,0.00
2018-03-30T01:24:12.714Z,0.00
2018-03-30T01:25:13.132Z,0.00
2018-03-30T01:26:13.545Z,0.00
2018-03-30T01:27:13.964Z,0.00
2018-03-30T01:28:14.394Z,0.00
2018-03-30T01:29:14.812Z,0.00
2018-03-30T01:30:15.226Z,0.00
2018-03-30T01:31:15.661Z,0.00
2018-03-30T01:32:16.088Z,0.00
2018-03-30T01:33:16.500Z,0.00
2018-03-30T01:34:16.920Z,0.00
2018-03-30T01:35:17.339Z,0.00
2018-03-30T01:36:17.772Z,0.00
2018-03-30T01:37:18.190Z,0.00
2018-03-30T01:38:18.605Z,0.00
2018-03-30T01:39:19.034Z,0.00
2018-03-30T01:40:19.457Z,0.00
2018-03-30T01:41:19.872Z,0.00
2018-03-30T01:42:20.295Z,0.00
2018-03-30T01:43:20.716Z,0.00
2018-03-30T01:44:21.141Z,0.00
2018-03-30T01:45:21.562Z,0.00
2018-03-30T01:46:21.980Z,0.00
2018-03-30T01:47:22.412Z,0.00
2018-03-30T01:48:22.826Z,0.00
2018-03-30T01:49:23.244Z,0.00
2018-03-30T01:50:23.676Z,0.00
2018-03-30T01:51:24.096Z,0.00
2018-03-30T01:52:24.511Z,0.00
2018-03-30T01:53:24.942Z,0.00
2018-03-30T01:54:25.350Z,0.00
2018-03-30T01:55:25.786Z,0.00
2018-03-30T01:56:26.203Z,0.00
2018-03-30T01:57:26.620Z,0.00
2018-03-30T01:58:27.041Z,0.00
2018-03-30T01:59:27.471Z,0.00
2018-03-30T02:00:27.890Z,0.00
2018-03-30T02:01:28.305Z,0.00
2018-03-30T02:02:28.738Z,0.00
2018-03-30T02:03:29.150Z,0.00
2018-03-30T02:04:29.572Z,0.00
2018-03-30T02:05:29.994Z,0.00
2018-03-30T02:06:30.411Z,0.00
2018-03-30T02:07:30.832Z,0.00
2018-03-30T02:08:31.260Z,0.00
2018-03-30T02:09:31.677Z,0.00
2018-03-30T02:10:32.132Z,0.00
2018-03-30T02:11:32.521Z,0.00
2018-03-30T02:12:32.943Z,0.00
2018-03-30T02:13:33.388Z,0.00
2018-03-30T02:14:33.789Z,0.00
2018-03-30T02:15:34.204Z,0.00
2018-03-30T02:16:34.638Z,0.00
2018-03-30T02:17:35.054Z,0.00
2018-03-30T02:18:35.468Z,0.00
2018-03-30T02:19:35.894Z,0.00
2018-03-30T02:20:36.315Z,0.00
2018-03-30T02:21:36.761Z,0.00
2018-03-30T02:22:37.165Z,0.00
2018-03-30T02:23:37.582Z,0.00
2018-03-30T02:24:38.025Z,0.00
2018-03-30T02:25:38.426Z,0.00
2018-03-30T02:26:38.844Z,0.00
2018-03-30T02:27:39.919Z,0.00
2018-03-30T02:28:39.698Z,0.00
2018-03-30T02:29:40.110Z,0.00
2018-03-30T02:30:40.537Z,0.00
2018-03-30T02:31:40.953Z,0.00
2018-03-30T02:32:41.386Z,0.00
2018-03-30T02:33:42.418Z,0.00
2018-03-30T02:34:42.220Z,0.00
2018-03-30T02:35:42.636Z,0.00
2018-03-30T02:36:43.069Z,0.00
2018-03-30T02:37:43.488Z,0.00
2018-03-30T02:38:43.914Z,0.00
2018-03-30T02:39:44.484Z,0.00
2018-03-30T02:40:44.745Z,0.00
2018-03-30T02:41:45.171Z,0.00
2018-03-30T02:42:45.660Z,0.00
2018-03-30T02:43:46.023Z,0.00
2018-03-30T02:44:46.434Z,0.00
2018-03-30T02:45:46.848Z,0.00
2018-03-30T02:46:47.278Z,0.00
2018-03-30T02:47:47.696Z,0.00
2018-03-30T02:48:48.124Z,0.00
2018-03-30T02:49:48.541Z,0.00
2018-03-30T02:50:48.975Z,0.00
2018-03-30T02:51:49.384Z,0.00
2018-03-30T02:52:49.810Z,0.00
2018-03-30T02:53:50.224Z,0.00
2018-03-30T02:54:50.643Z,0.00
2018-03-30T02:55:51.080Z,0.00
2018-03-30T02:56:51.494Z,0.00
2018-03-30T02:57:51.919Z,0.00
2018-03-30T02:58:52.335Z,0.00
2018-03-30T02:59:52.754Z,0.00
2018-03-30T03:00:53.171Z,0.00
2018-03-30T03:01:53.605Z,0.00
2018-03-30T03:02:54.019Z,0.00
2018-03-30T03:03:54.443Z,0.00
2018-03-30T03:04:54.860Z,0.00
2018-03-30T03:05:55.283Z,0.00
2018-03-30T03:06:55.700Z,0.00
2018-03-30T03:07:56.123Z,0.00
2018-03-30T03:08:56.553Z,0.00
2018-03-30T03:09:56.970Z,0.00
2018-03-30T03:10:57.387Z,0.00
2018-03-30T03:11:57.803Z,0.00
2018-03-30T03:12:58.236Z,0.00
2018-03-30T03:13:58.659Z,0.00
2018-03-30T03:14:59.076Z,0.00
2018-03-30T03:15:59.493Z,0.00
2018-03-30T03:16:59.913Z,0.00
2018-03-30T03:18:00.335Z,0.00
2018-03-30T03:19:00.762Z,0.00
2018-03-30T03:20:01.179Z,0.00
2018-03-30T03:21:01.599Z,0.00
2018-03-30T03:22:02.022Z,0.00
2018-03-30T03:23:02.439Z,0.00
2018-03-30T03:24:02.869Z,0.00
2018-03-30T03:25:03.288Z,0.00
2018-03-30T03:26:03.709Z,0.00
2018-03-30T03:27:04.121Z,0.00
2018-03-30T03:28:04.547Z,0.00
2018-03-30T03:29:04.971Z,0.00
2018-03-30T03:30:05.388Z,0.00
2018-03-30T03:31:05.805Z,0.00
2018-03-30T03:32:06.239Z,0.00
2018-03-30T03:33:06.654Z,0.00
2018-03-30T03:34:07.071Z,0.00
2018-03-30T03:35:07.494Z,0.00
2018-03-30T03:36:07.912Z,0.00
2018-03-30T03:37:08.377Z,0.00
2018-03-30T03:38:08.762Z,0.00
2018-03-30T03:39:09.202Z,0.00
2018-03-30T03:40:09.596Z,0.00
2018-03-30T03:41:10.015Z,0.00
2018-03-30T03:42:10.503Z,0.00
2018-03-30T03:43:10.878Z,0.00
2018-03-30T03:44:11.282Z,0.00
2018-03-30T03:45:11.710Z,0.00
2018-03-30T03:46:12.126Z,0.00
2018-03-30T03:47:12.538Z,0.00
2018-03-30T03:48:12.957Z,0.00
2018-03-30T03:49:13.390Z,0.00
2018-03-30T03:50:13.812Z,0.00
2018-03-30T03:51:14.258Z,0.00
2018-03-30T03:52:14.647Z,0.00
2018-03-30T03:53:15.067Z,0.00
2018-03-30T03:54:15.503Z,0.00
2018-03-30T03:55:15.919Z,0.00
2018-03-30T03:56:16.335Z,0.00
2018-03-30T03:57:16.755Z,0.00
2018-03-30T03:58:17.175Z,0.00
2018-03-30T03:59:17.586Z,0.00
2018-03-30T04:00:18.011Z,0.00
2018-03-30T04:01:18.430Z,0.00
2018-03-30T04:02:18.859Z,0.00
2018-03-30T04:03:19.276Z,0.00
2018-03-30T04:04:19.693Z,0.00
2018-03-30T04:05:20.113Z,0.00
2018-03-30T04:06:20.545Z,0.00
2018-03-30T04:07:20.963Z,0.00
2018-03-30T04:08:21.380Z,0.00
2018-03-30T04:09:21.798Z,0.00
2018-03-30T04:10:22.222Z,0.00
2018-03-30T04:11:22.632Z,0.00
2018-03-30T04:12:23.057Z,0.00
2018-03-30T04:13:23.479Z,4.00
2018-03-30T04:14:23.907Z,4.00
2018-03-30T04:15:24.316Z,4.00
2018-03-30T04:16:24.751Z,0.00
2018-03-30T04:17:25.169Z,4.00
2018-03-30T04:18:25.582Z,4.00
2018-03-30T04:19:26.004Z,4.00
2018-03-30T04:20:26.430Z,8.00
2018-03-30T04:21:26.854Z,4.00
2018-03-30T04:22:27.270Z,4.00
2018-03-30T04:23:27.711Z,8.00
2018-03-30T04:24:28.111Z,8.00
2018-03-30T04:25:28.523Z,12.00
2018-03-30T04:26:28.945Z,16.00
2018-03-30T04:27:29.363Z,16.00
2018-03-30T04:28:29.788Z,20.00
2018-03-30T04:29:30.213Z,20.00
2018-03-30T04:30:30.647Z,24.00
2018-03-30T04:31:31.057Z,28.00
2018-03-30T04:32:31.473Z,32.00
2018-03-30T04:33:31.896Z,36.00
2018-03-30T04:34:32.314Z,40.00
2018-03-30T04:35:32.732Z,48.00
2018-03-30T04:36:33.155Z,56.00
2018-03-30T04:37:33.624Z,64.00
2018-03-30T04:38:33.993Z,72.00
2018-03-30T04:39:34.408Z,80.00
2018-03-30T04:40:34.892Z,88.00
2018-03-30T04:41:35.253Z,100.00
2018-03-30T04:42:35.681Z,112.00
2018-03-30T04:43:36.092Z,124.00
2018-03-30T04:44:36.512Z,136.00
2018-03-30T04:45:36.944Z,148.00
2018-03-30T04:46:37.353Z,168.00
2018-03-30T04:47:37.783Z,184.00
2018-03-30T04:48:38.200Z,200.00
2018-03-30T04:49:38.619Z,216.00
2018-03-30T04:50:39.034Z,236.00
2018-03-30T04:51:39.453Z,252.00
2018-03-30T04:52:39.876Z,276.00
2018-03-30T04:53:40.298Z,296.00
2018-03-30T04:54:40.718Z,320.00
2018-03-30T04:55:41.206Z,340.00
2018-03-30T04:56:41.556Z,368.00
2018-03-30T04:57:41.976Z,396.00
2018-03-30T04:58:42.408Z,416.00
2018-03-30T04:59:42.821Z,444.00
2018-03-30T05:00:43.240Z,468.00
2018-03-30T05:01:43.656Z,492.00
2018-03-30T05:02:44.083Z,524.00
2018-03-30T05:03:44.497Z,556.00
2018-03-30T05:04:44.938Z,596.00
2018-03-30T05:05:45.341Z,628.00
2018-03-30T05:06:45.764Z,648.00
2018-03-30T05:07:46.181Z,668.00
2018-03-30T05:08:46.597Z,704.00
2018-03-30T05:09:47.022Z,736.00
2018-03-30T05:10:47.445Z,772.00
2018-03-30T05:11:47.866Z,816.00
2018-03-30T05:12:48.280Z,880.00
2018-03-30T05:13:48.701Z,920.00
2018-03-30T05:14:49.130Z,976.00
2018-03-30T05:15:49.545Z,1036.00
2018-03-30T05:16:49.971Z,1096.00
2018-03-30T05:17:50.387Z,1136.00
2018-03-30T05:18:50.806Z,1192.00
2018-03-30T05:19:51.223Z,1248.00
2018-03-30T05:20:51.648Z,1272.00
2018-03-30T05:21:52.069Z,1288.00
2018-03-30T05:22:52.491Z,1328.00
2018-03-30T05:23:52.920Z,1368.00
2018-03-30T05:24:53.330Z,1408.00
2018-03-30T05:25:53.769Z,1472.00
2018-03-30T05:26:54.181Z,1532.00
2018-03-30T05:27:54.589Z,1600.00
2018-03-30T05:28:55.058Z,1656.00
2018-03-30T05:29:55.436Z,1728.00
2018-03-30T05:30:55.853Z,1788.00
2018-03-30T05:31:56.273Z,1796.00
2018-03-30T05:32:56.708Z,1812.00
2018-03-30T05:33:57.124Z,1848.00
2018-03-30T05:34:57.540Z,1896.00
2018-03-30T05:35:57.953Z,1952.00
2018-03-30T05:36:58.386Z,2012.00
2018-03-30T05:37:58.794Z,2056.00
2018-03-30T05:38:59.223Z,2120.00
2018-03-30T05:39:59.639Z,2192.00
2018-03-30T05:41:00.060Z,2260.00
2018-03-30T05:42:00.483Z,2288.00
2018-03-30T05:43:00.910Z,2300.00
2018-03-30T05:44:01.323Z,2324.00
2018-03-30T05:45:01.745Z,2356.00
2018-03-30T05:46:02.166Z,2400.00
2018-03-30T05:47:02.583Z,2448.00
2018-03-30T05:48:03.005Z,2492.00
2018-03-30T05:49:03.437Z,2532.00
2018-03-30T05:50:03.866Z,2568.00
2018-03-30T05:51:04.265Z,2608.00
2018-03-30T05:52:04.695Z,2652.00
2018-03-30T05:53:05.113Z,2700.00
2018-03-30T05:54:05.530Z,2744.00
2018-03-30T05:55:05.952Z,2784.00
2018-03-30T05:56:06.370Z,2792.00
2018-03-30T05:57:06.800Z,2796.00
2018-03-30T05:58:07.297Z,2804.00
2018-03-30T05:59:07.640Z,2820.00
2018-03-30T06:00:08.059Z,2836.00
2018-03-30T06:01:08.476Z,2876.00
2018-03-30T06:02:08.904Z,2908.00
2018-03-30T06:03:09.319Z,2952.00
2018-03-30T06:04:09.740Z,2980.00
2018-03-30T06:05:10.954Z,2876.00
2018-03-30T06:06:10.583Z,2700.00
2018-03-30T06:07:11.017Z,2812.00
2018-03-30T06:08:11.428Z,3152.00
2018-03-30T06:09:11.848Z,3552.00
2018-03-30T06:10:12.269Z,3768.00
2018-03-30T06:11:12.712Z,3872.00
2018-03-30T06:12:13.141Z,3928.00
2018-03-30T06:13:13.530Z,3956.00
2018-03-30T06:14:13.955Z,3940.00
2018-03-30T06:15:14.377Z,3908.00
2018-03-30T06:16:14.797Z,4032.00
2018-03-30T06:17:15.219Z,4204.00
2018-03-30T06:18:15.639Z,4348.00
2018-03-30T06:19:16.066Z,4492.00
2018-03-30T06:20:16.484Z,4628.00
2018-03-30T06:21:16.900Z,4756.00
2018-03-30T06:22:17.323Z,4896.00
2018-03-30T06:23:17.746Z,5024.00
2018-03-30T06:24:18.169Z,5092.00
2018-03-30T06:25:18.588Z,5152.00
2018-03-30T06:26:19.021Z,5216.00
2018-03-30T06:27:19.433Z,5168.00
2018-03-30T06:28:19.849Z,5016.00
2018-03-30T06:29:20.275Z,5000.00
2018-03-30T06:30:20.729Z,4956.00
2018-03-30T06:31:21.118Z,5028.00
2018-03-30T06:32:21.581Z,5252.00
2018-03-30T06:33:21.963Z,5468.00
2018-03-30T06:34:22.382Z,5624.00
2018-03-30T06:35:22.806Z,5708.00
2018-03-30T06:36:23.224Z,5848.00
2018-03-30T06:37:23.649Z,6012.00
2018-03-30T06:38:24.076Z,6156.00
2018-03-30T06:39:24.492Z,6364.00
2018-03-30T06:40:24.916Z,6520.00
2018-03-30T06:41:25.338Z,6644.00
2018-03-30T06:42:25.806Z,6736.00
2018-03-30T06:43:26.187Z,6824.00
2018-03-30T06:44:26.608Z,6936.00
2018-03-30T06:45:27.022Z,7024.00
2018-03-30T06:46:27.442Z,6928.00
2018-03-30T06:47:27.876Z,6704.00
2018-03-30T06:48:28.287Z,6664.00
2018-03-30T06:49:28.733Z,6604.00
2018-03-30T06:50:29.143Z,6624.00
2018-03-30T06:51:29.564Z,6676.00
2018-03-30T06:52:29.986Z,6728.00
2018-03-30T06:53:30.413Z,6756.00
2018-03-30T06:54:30.827Z,6760.00
2018-03-30T06:55:31.252Z,6736.00
2018-03-30T06:56:31.676Z,6636.00
2018-03-30T06:57:32.101Z,6632.00
2018-03-30T06:58:32.523Z,6772.00
2018-03-30T06:59:32.937Z,6944.00
2018-03-30T07:00:33.358Z,7060.00
2018-03-30T07:01:33.789Z,7184.00
2018-03-30T07:02:34.208Z,7288.00
2018-03-30T07:03:34.631Z,7400.00
2018-03-30T07:04:35.053Z,7556.00
2018-03-30T07:05:35.475Z,7720.00
2018-03-30T07:06:35.911Z,7804.00
2018-03-30T07:07:36.347Z,7900.00
2018-03-30T07:08:36.759Z,7812.00
2018-03-30T07:09:37.176Z,7556.00
2018-03-30T07:10:37.592Z,7596.00
2018-03-30T07:11:38.013Z,7848.00
2018-03-30T07:12:38.434Z,7856.00
2018-03-30T07:13:38.869Z,7728.00
2018-03-30T07:14:39.281Z,7736.00
2018-03-30T07:15:39.712Z,7768.00
2018-03-30T07:16:40.135Z,7912.00
2018-03-30T07:17:40.553Z,8032.00
2018-03-30T07:18:40.988Z,8096.00
2018-03-30T07:19:41.399Z,8148.00
2018-03-30T07:20:41.816Z,8244.00
2018-03-30T07:21:42.250Z,8360.00
2018-03-30T07:22:42.677Z,8528.00
2018-03-30T07:23:43.103Z,8684.00
2018-03-30T07:24:43.514Z,8908.00
2018-03-30T07:25:43.943Z,9084.00
2018-03-30T07:26:44.358Z,9272.00
2018-03-30T07:27:44.803Z,9444.00
2018-03-30T07:28:45.213Z,9544.00
2018-03-30T07:29:45.630Z,9720.00
2018-03-30T07:30:46.062Z,9748.00
2018-03-30T07:31:46.482Z,9736.00
2018-03-30T07:32:46.912Z,9768.00
2018-03-30T07:33:47.327Z,9792.00
2018-03-30T07:34:47.792Z,9824.00
2018-03-30T07:35:48.200Z,10040.00
2018-03-30T07:36:48.608Z,10248.00
2018-03-30T07:37:49.023Z,10580.00
2018-03-30T07:38:49.453Z,10868.00
2018-03-30T07:39:49.872Z,11068.00
2018-03-30T07:40:50.296Z,11548.00
2018-03-30T07:41:50.718Z,11952.00
2018-03-30T07:42:51.154Z,12164.00
2018-03-30T07:43:51.582Z,12312.00
2018-03-30T07:44:52.002Z,12180.00
2018-03-30T07:45:52.425Z,12200.00
2018-03-30T07:46:52.848Z,12640.00
2018-03-30T07:47:53.315Z,12800.00
2018-03-30T07:48:53.695Z,13124.00
2018-03-30T07:49:54.127Z,12792.00
2018-03-30T07:50:54.566Z,12408.00
2018-03-30T07:51:54.977Z,12684.00
2018-03-30T07:52:55.420Z,13532.00
2018-03-30T07:53:55.830Z,14272.00
2018-03-30T07:54:56.254Z,14712.00
2018-03-30T07:55:56.725Z,16064.00
2018-03-30T07:56:57.110Z,17344.00
2018-03-30T07:57:57.528Z,17504.00
2018-03-30T07:58:57.955Z,18272.00
2018-03-30T07:59:58.406Z,19200.00
2018-03-30T08:00:58.808Z,20928.00
2018-03-30T08:01:59.224Z,22080.00
2018-03-30T08:02:59.666Z,18720.00
2018-03-30T08:04:00.085Z,18240.00
2018-03-30T08:05:00.511Z,18784.00
2018-03-30T08:06:00.933Z,20480.00
2018-03-30T08:07:01.358Z,20448.00
2018-03-30T08:08:01.788Z,19584.00
2018-03-30T08:09:02.211Z,20384.00
2018-03-30T08:10:02.643Z,20416.00
2018-03-30T08:11:03.065Z,20576.00
2018-03-30T08:12:03.492Z,21344.00
2018-03-30T08:13:03.916Z,22432.00
2018-03-30T08:14:04.371Z,23488.00
2018-03-30T08:15:04.783Z,22560.00
2018-03-30T08:16:05.200Z,22688.00
2018-03-30T08:17:05.640Z,22528.00
2018-03-30T08:18:06.057Z,24096.00
2018-03-30T08:19:06.496Z,23360.00
2018-03-30T08:20:06.916Z,23136.00
2018-03-30T08:21:07.406Z,26784.00
2018-03-30T08:22:07.778Z,28928.00
2018-03-30T08:23:08.201Z,30464.00
2018-03-30T08:24:08.679Z,33152.00
2018-03-30T08:25:09.066Z,36160.00
2018-03-30T08:26:09.490Z,39264.00
2018-03-30T08:27:09.929Z,42336.00
2018-03-30T08:28:10.348Z,43040.00
2018-03-30T08:29:10.781Z,41536.00
2018-03-30T08:30:11.209Z,42400.00
2018-03-30T08:31:11.649Z,41696.00
2018-03-30T08:32:12.066Z,40160.00
2018-03-30T08:33:12.505Z,38848.00
2018-03-30T08:34:12.929Z,35488.00
2018-03-30T08:35:13.363Z,33472.00
2018-03-30T08:36:13.794Z,31648.00
2018-03-30T08:37:14.226Z,32640.00
2018-03-30T08:38:14.674Z,39040.00
2018-03-30T08:39:15.090Z,37504.00
2018-03-30T08:40:15.532Z,38368.00
2018-03-30T08:41:15.965Z,40832.00
2018-03-30T08:42:16.397Z,41344.00
2018-03-30T08:43:16.829Z,42336.00
2018-03-30T08:44:17.257Z,43968.00
2018-03-30T08:45:17.702Z,43296.00
2018-03-30T08:46:18.139Z,44576.00
2018-03-30T08:47:18.579Z,45152.00
2018-03-30T08:48:18.999Z,45408.00
2018-03-30T08:49:19.496Z,38976.00
2018-03-30T08:50:19.875Z,38464.00
2018-03-30T08:51:20.310Z,37600.00
2018-03-30T08:52:20.753Z,36064.00
2018-03-30T08:53:21.217Z,36416.00
2018-03-30T08:54:21.640Z,33440.00
2018-03-30T08:55:22.101Z,31680.00
2018-03-30T08:56:22.539Z,28352.00
2018-03-30T08:57:22.948Z,24640.00
2018-03-30T08:58:23.374Z,23808.00
2018-03-30T08:59:23.817Z,22336.00
2018-03-30T09:00:24.250Z,23680.00
2018-03-30T09:01:24.681Z,22752.00
2018-03-30T09:02:25.135Z,21216.00
2018-03-30T09:03:25.551Z,20704.00
2018-03-30T09:04:26.007Z,21056.00
2018-03-30T09:05:26.420Z,20128.00
2018-03-30T09:06:26.862Z,20288.00
2018-03-30T09:07:27.295Z,19872.00
2018-03-30T09:08:27.740Z,22272.00
2018-03-30T09:09:28.161Z,21568.00
2018-03-30T09:10:28.595Z,20960.00
2018-03-30T09:11:29.026Z,21888.00
2018-03-30T09:12:29.465Z,21184.00
2018-03-30T09:13:29.904Z,21440.00
2018-03-30T09:14:30.327Z,22080.00
2018-03-30T09:15:30.759Z,22368.00
2018-03-30T09:16:31.197Z,21440.00
2018-03-30T09:17:31.632Z,21760.00
2018-03-30T09:18:32.062Z,20256.00
2018-03-30T09:19:32.489Z,18048.00
2018-03-30T09:20:33.020Z,17504.00
2018-03-30T09:21:33.355Z,16736.00
2018-03-30T09:22:33.790Z,15236.00
2018-03-30T09:23:34.226Z,14976.00
2018-03-30T09:24:34.662Z,14504.00
2018-03-30T09:25:35.087Z,14156.00
2018-03-30T09:26:35.525Z,14320.00
2018-03-30T09:27:35.961Z,14468.00
2018-03-30T09:28:36.390Z,14800.00
2018-03-30T09:29:36.816Z,14632.00
2018-03-30T09:30:37.246Z,14656.00
2018-03-30T09:31:37.682Z,14868.00
2018-03-30T09:32:38.106Z,14604.00
2018-03-30T09:33:38.540Z,14096.00
2018-03-30T09:34:38.980Z,13964.00
2018-03-30T09:35:39.401Z,13696.00
2018-03-30T09:36:39.833Z,13292.00
2018-03-30T09:37:40.269Z,13084.00
2018-03-30T09:38:40.697Z,13056.00
2018-03-30T09:39:41.119Z,12948.00
2018-03-30T09:40:41.547Z,12692.00
2018-03-30T09:41:41.975Z,12668.00
2018-03-30T09:42:42.411Z,12708.00
2018-03-30T09:43:42.834Z,12644.00
2018-03-30T09:44:43.265Z,12624.00
2018-03-30T09:45:43.699Z,12656.00
2018-03-30T09:46:44.122Z,12364.00
2018-03-30T09:47:44.553Z,12160.00
2018-03-30T09:48:44.972Z,12144.00
2018-03-30T09:49:45.411Z,11948.00
2018-03-30T09:50:45.840Z,11836.00
2018-03-30T09:51:46.258Z,11700.00
2018-03-30T09:52:46.691Z,11576.00
2018-03-30T09:53:47.114Z,11400.00
2018-03-30T09:54:47.549Z,11320.00
2018-03-30T09:55:47.972Z,11276.00
2018-03-30T09:56:48.403Z,11288.00
2018-03-30T09:57:48.823Z,11344.00
2018-03-30T09:58:49.254Z,11384.00
2018-03-30T09:59:49.679Z,11448.00
2018-03-30T10:00:50.109Z,11580.00
2018-03-30T10:01:50.528Z,11852.00
2018-03-30T10:02:50.967Z,12196.00
2018-03-30T10:03:51.399Z,12396.00
2018-03-30T10:04:51.820Z,12708.00
2018-03-30T10:05:52.250Z,13180.00
2018-03-30T10:06:52.674Z,13936.00
2018-03-30T10:07:53.132Z,16224.00
2018-03-30T10:08:53.531Z,20864.00
2018-03-30T10:09:53.957Z,22528.00
2018-03-30T10:10:54.408Z,26016.00
2018-03-30T10:11:54.813Z,31008.00
2018-03-30T10:12:55.238Z,33600.00
2018-03-30T10:13:55.665Z,34272.00
2018-03-30T10:14:56.103Z,36736.00
2018-03-30T10:15:56.524Z,41120.00
2018-03-30T10:16:56.950Z,42976.00
2018-03-30T10:17:57.384Z,46016.00
2018-03-30T10:18:57.809Z,46720.00
2018-03-30T10:19:58.242Z,46752.00
2018-03-30T10:20:58.706Z,44672.00
2018-03-30T10:21:59.100Z,41728.00
2018-03-30T10:22:59.544Z,39072.00
2018-03-30T10:23:59.970Z,39392.00
2018-03-30T10:25:00.429Z,42944.00
2018-03-30T10:26:00.854Z,46880.00
2018-03-30T10:27:01.271Z,55200.00
2018-03-30T10:28:01.722Z,52832.00
2018-03-30T10:29:02.146Z,48800.00
2018-03-30T10:30:02.578Z,54496.00
2018-03-30T10:31:03.012Z,52224.00
2018-03-30T10:32:03.445Z,41760.00
2018-03-30T10:33:03.896Z,54464.00
2018-03-30T10:34:04.326Z,50976.00
2018-03-30T10:35:04.763Z,56576.00
2018-03-30T10:36:05.239Z,57504.00
2018-03-30T10:37:05.636Z,55616.00
2018-03-30T10:38:06.075Z,62624.00
2018-03-30T10:39:06.518Z,69536.00
2018-03-30T10:40:06.952Z,71072.00
2018-03-30T10:41:07.395Z,67488.00
2018-03-30T10:42:07.840Z,64224.00
2018-03-30T10:43:08.294Z,60096.00
2018-03-30T10:44:08.722Z,45376.00
2018-03-30T10:45:09.196Z,50144.00
2018-03-30T10:46:09.610Z,61248.00
2018-03-30T10:47:10.048Z,63648.00
2018-03-30T10:48:10.491Z,62944.00
2018-03-30T10:49:10.932Z,68672.00
2018-03-30T10:50:11.385Z,71424.00
2018-03-30T10:51:11.829Z,71296.00
2018-03-30T10:52:12.294Z,75232.00
2018-03-30T10:53:12.771Z,72544.00
2018-03-30T10:54:13.174Z,70592.00
2018-03-30T10:55:13.607Z,69952.00
2018-03-30T10:56:14.055Z,69312.00
2018-03-30T10:57:14.583Z,64832.00
2018-03-30T10:58:14.957Z,69376.00
2018-03-30T10:59:15.402Z,65728.00
2018-03-30T11:00:15.865Z,66880.00
2018-03-30T11:01:16.301Z,69248.00
2018-03-30T11:02:16.747Z,66528.00
2018-03-30T11:03:17.204Z,62144.00
2018-03-30T11:04:17.654Z,60768.00
2018-03-30T11:05:18.169Z,64064.00
2018-03-30T11:06:18.542Z,65248.00
2018-03-30T11:07:18.991Z,70304.00
2018-03-30T11:08:19.451Z,73632.00
2018-03-30T11:09:19.884Z,69312.00
2018-03-30T11:10:20.346Z,69952.00
2018-03-30T11:11:20.779Z,68544.00
2018-03-30T11:12:21.230Z,77568.00
2018-03-30T11:13:21.682Z,83424.00
2018-03-30T11:14:22.126Z,78688.00
2018-03-30T11:15:22.572Z,77280.00
2018-03-30T11:16:23.028Z,71200.00
2018-03-30T11:17:23.482Z,67712.00
2018-03-30T11:18:23.921Z,66944.00
2018-03-30T11:19:24.388Z,66624.00
2018-03-30T11:20:24.824Z,52320.00
2018-03-30T11:21:25.272Z,57760.00
2018-03-30T11:22:25.733Z,59168.00
2018-03-30T11:23:26.168Z,62848.00
2018-03-30T11:24:26.624Z,58400.00
2018-03-30T11:25:27.067Z,55904.00
2018-03-30T11:26:27.520Z,57824.00
2018-03-30T11:27:27.969Z,60352.00
2018-03-30T11:28:28.414Z,60672.00
2018-03-30T11:29:28.866Z,58976.00
2018-03-30T11:30:29.317Z,57248.00
2018-03-30T11:31:29.765Z,56256.00
2018-03-30T11:32:30.218Z,54688.00
2018-03-30T11:33:30.680Z,56768.00
2018-03-30T11:34:31.112Z,55232.00
2018-03-30T11:35:31.590Z,56320.00
2018-03-30T11:36:32.033Z,57536.00
2018-03-30T11:37:32.468Z,58304.00
2018-03-30T11:38:32.926Z,57984.00
2018-03-30T11:39:33.361Z,55744.00
2018-03-30T11:40:33.810Z,56096.00
2018-03-30T11:41:34.271Z,56640.00
2018-03-30T11:42:34.715Z,57728.00
2018-03-30T11:43:35.166Z,57472.00
2018-03-30T11:44:35.620Z,42080.00
2018-03-30T11:45:36.086Z,11424.00
2018-03-30T11:46:36.553Z,7792.00
2018-03-30T11:47:36.975Z,7492.00
2018-03-30T11:48:37.438Z,7272.00
2018-03-30T11:49:37.869Z,7112.00
2018-03-30T11:50:38.317Z,7064.00
2018-03-30T11:51:38.764Z,7044.00
2018-03-30T11:52:39.215Z,7008.00
2018-03-30T11:53:39.660Z,7008.00
2018-03-30T11:54:40.100Z,6948.00
2018-03-30T11:55:40.576Z,6872.00
2018-03-30T11:56:40.984Z,6776.00
2018-03-30T11:57:41.428Z,6692.00
2018-03-30T11:58:41.870Z,6616.00
2018-03-30T11:59:42.322Z,6488.00
2018-03-30T12:00:42.744Z,6444.00
2018-03-30T12:01:43.203Z,6376.00
2018-03-30T12:02:43.631Z,6292.00
2018-03-30T12:03:44.061Z,6212.00
2018-03-30T12:04:44.496Z,6180.00
2018-03-30T12:05:44.930Z,6172.00
2018-03-30T12:06:45.370Z,6252.00
2018-03-30T12:07:45.805Z,6184.00
2018-03-30T12:08:46.250Z,6208.00
2018-03-30T12:09:46.677Z,6156.00
2018-03-30T12:10:47.112Z,6104.00
2018-03-30T12:11:47.543Z,6060.00
2018-03-30T12:12:47.975Z,6048.00
2018-03-30T12:13:48.398Z,6012.00
2018-03-30T12:14:48.846Z,5988.00
2018-03-30T12:15:49.266Z,5956.00
2018-03-30T12:16:49.698Z,5956.00
2018-03-30T12:17:50.131Z,5936.00
2018-03-30T12:18:50.581Z,5928.00
2018-03-30T12:19:51.007Z,5896.00
2018-03-30T12:20:52.047Z,5892.00
2018-03-30T12:21:51.856Z,5872.00
2018-03-30T12:22:52.290Z,5884.00
2018-03-30T12:23:52.720Z,5868.00
2018-03-30T12:24:53.181Z,5872.00
2018-03-30T12:25:53.624Z,5840.00
2018-03-30T12:26:54.097Z,5764.00
2018-03-30T12:27:54.463Z,5676.00
2018-03-30T12:28:54.914Z,5772.00
2018-03-30T12:29:55.339Z,5744.00